sensor_id;sensor_type;location;lat;lon;timestamp;P1;P2;P0
70915;PMS5003;58557;50.982;-3.222;2023-04-16T00:00:07;12;7;
70915;PMS5003;58557;50.982;-3.222;2023-04-16T00:02:33;11;6;
70915;PMS5003;58557;50.982;-3.222;2023-04-16T00:04:58;8;7;
70915;PMS5003;58557;50.982;-3.222;2023-04-16T00:07:24;7;7;
70915;PMS5003;58557;50.982;-3.222;2023-04-16T00:09:49;10;8;
70915;PMS5003;58557;50.982;-3.222;2023-04-16T00:12:15;6;6;
70915;PMS5003;58557;50.982;-3.222;2023-04-16T00:14:40;5;5;
70915;PMS5003;58557;50.982;-3.222;2023-04-16T00:17:06;12;10;
70915;PMS5003;58557;50.982;-3.222;2023-04-16T00:19:31;7;7;
70915;PMS5003;58557;50.982;-3.222;2023-04-16T00:21:56;10;7;
70915;PMS5003;58557;50.982;-3.222;2023-04-16T00:24:22;7;6;
70915;PMS5003;58557;50.982;-3.222;2023-04-16T00:26:47;8;8;
70915;PMS5003;58557;50.982;-3.222;2023-04-16T00:29:13;10;8;
70915;PMS5003;58557;50.982;-3.222;2023-04-16T00:31:38;13;10;
70915;PMS5003;58557;50.982;-3.222;2023-04-16T00:34:04;17;12;
70915;PMS5003;58557;50.982;-3.222;2023-04-16T00:36:30;7;7;
70915;PMS5003;58557;50.982;-3.222;2023-04-16T00:38:55;10;7;
70915;PMS5003;58557;50.982;-3.222;2023-04-16T00:41:21;12;8;
70915;PMS5003;58557;50.982;-3.222;2023-04-16T00:43:46;11;8;
70915;PMS5003;58557;50.982;-3.222;2023-04-16T00:46:12;11;11;
70915;PMS5003;58557;50.982;-3.222;2023-04-16T00:48:38;13;8;
70915;PMS5003;58557;50.982;-3.222;2023-04-16T00:51:04;8;8;
70915;PMS5003;58557;50.982;-3.222;2023-04-16T00:53:29;13;10;
70915;PMS5003;58557;50.982;-3.222;2023-04-16T00:55:54;10;10;
70915;PMS5003;58557;50.982;-3.222;2023-04-16T00:58:20;9;9;
70915;PMS5003;58557;50.982;-3.222;2023-04-16T01:00:46;8;8;
70915;PMS5003;58557;50.982;-3.222;2023-04-16T01:03:11;11;10;
70915;PMS5003;58557;50.982;-3.222;2023-04-16T01:05:37;9;8;
70915;PMS5003;58557;50.982;-3.222;2023-04-16T01:08:02;9;9;
70915;PMS5003;58557;50.982;-3.222;2023-04-16T01:10:28;11;8;
70915;PMS5003;58557;50.982;-3.222;2023-04-16T01:12:53;8;8;
70915;PMS5003;58557;50.982;-3.222;2023-04-16T01:15:19;9;8;
70915;PMS5003;58557;50.982;-3.222;2023-04-16T01:17:45;13;11;
70915;PMS5003;58557;50.982;-3.222;2023-04-16T01:20:11;7;7;
70915;PMS5003;58557;50.982;-3.222;2023-04-16T01:22:36;10;10;
70915;PMS5003;58557;50.982;-3.222;2023-04-16T01:25:02;12;12;
70915;PMS5003;58557;50.982;-3.222;2023-04-16T01:27:28;12;12;
70915;PMS5003;58557;50.982;-3.222;2023-04-16T01:29:54;14;11;
70915;PMS5003;58557;50.982;-3.222;2023-04-16T01:32:19;14;10;
70915;PMS5003;58557;50.982;-3.222;2023-04-16T01:34:45;7;6;
70915;PMS5003;58557;50.982;-3.222;2023-04-16T01:37:10;7;7;
70915;PMS5003;58557;50.982;-3.222;2023-04-16T01:39:35;13;8;
70915;PMS5003;58557;50.982;-3.222;2023-04-16T01:42:01;10;10;
70915;PMS5003;58557;50.982;-3.222;2023-04-16T01:44:26;9;7;
70915;PMS5003;58557;50.982;-3.222;2023-04-16T01:46:51;8;8;
70915;PMS5003;58557;50.982;-3.222;2023-04-16T01:49:17;7;7;
70915;PMS5003;58557;50.982;-3.222;2023-04-16T01:51:43;8;7;
70915;PMS5003;58557;50.982;-3.222;2023-04-16T01:54:08;11;10;
70915;PMS5003;58557;50.982;-3.222;2023-04-16T01:56:34;10;10;
70915;PMS5003;58557;50.982;-3.222;2023-04-16T01:58:59;11;10;
70915;PMS5003;58557;50.982;-3.222;2023-04-16T02:01:24;12;12;
70915;PMS5003;58557;50.982;-3.222;2023-04-16T02:03:50;14;13;
70915;PMS5003;58557;50.982;-3.222;2023-04-16T02:06:16;12;10;
70915;PMS5003;58557;50.982;-3.222;2023-04-16T02:08:41;9;9;
70915;PMS5003;58557;50.982;-3.222;2023-04-16T02:11:06;12;8;
70915;PMS5003;58557;50.982;-3.222;2023-04-16T02:13:32;16;13;
70915;PMS5003;58557;50.982;-3.222;2023-04-16T02:15:58;12;10;
70915;PMS5003;58557;50.982;-3.222;2023-04-16T02:18:24;12;12;
70915;PMS5003;58557;50.982;-3.222;2023-04-16T02:20:56;10;10;
70915;PMS5003;58557;50.982;-3.222;2023-04-16T02:23:15;14;14;
70915;PMS5003;58557;50.982;-3.222;2023-04-16T02:25:41;15;15;
70915;PMS5003;58557;50.982;-3.222;2023-04-16T02:28:07;12;12;
70915;PMS5003;58557;50.982;-3.222;2023-04-16T02:30:32;20;20;
70915;PMS5003;58557;50.982;-3.222;2023-04-16T02:32:58;21;19;
70915;PMS5003;58557;50.982;-3.222;2023-04-16T02:35:24;20;17;
70915;PMS5003;58557;50.982;-3.222;2023-04-16T02:37:48;19;18;
70915;PMS5003;58557;50.982;-3.222;2023-04-16T02:40:14;18;17;
70915;PMS5003;58557;50.982;-3.222;2023-04-16T02:42:39;18;14;
70915;PMS5003;58557;50.982;-3.222;2023-04-16T02:45:05;17;15;
70915;PMS5003;58557;50.982;-3.222;2023-04-16T02:47:30;13;13;
70915;PMS5003;58557;50.982;-3.222;2023-04-16T02:49:56;15;13;
70915;PMS5003;58557;50.982;-3.222;2023-04-16T02:52:22;17;15;
70915;PMS5003;58557;50.982;-3.222;2023-04-16T02:54:47;13;13;
70915;PMS5003;58557;50.982;-3.222;2023-04-16T02:57:12;13;13;
70915;PMS5003;58557;50.982;-3.222;2023-04-16T02:59:38;15;15;
70915;PMS5003;58557;50.982;-3.222;2023-04-16T03:02:04;12;12;
70915;PMS5003;58557;50.982;-3.222;2023-04-16T03:04:31;12;11;
70915;PMS5003;58557;50.982;-3.222;2023-04-16T03:06:55;17;17;
70915;PMS5003;58557;50.982;-3.222;2023-04-16T03:09:21;24;22;
70915;PMS5003;58557;50.982;-3.222;2023-04-16T03:11:45;17;15;
70915;PMS5003;58557;50.982;-3.222;2023-04-16T03:14:11;15;15;
70915;PMS5003;58557;50.982;-3.222;2023-04-16T03:16:37;17;13;
70915;PMS5003;58557;50.982;-3.222;2023-04-16T03:19:03;23;20;
70915;PMS5003;58557;50.982;-3.222;2023-04-16T03:21:28;19;17;
70915;PMS5003;58557;50.982;-3.222;2023-04-16T03:23:54;21;18;
70915;PMS5003;58557;50.982;-3.222;2023-04-16T03:26:19;14;13;
70915;PMS5003;58557;50.982;-3.222;2023-04-16T03:28:45;22;18;
70915;PMS5003;58557;50.982;-3.222;2023-04-16T03:31:10;22;21;
70915;PMS5003;58557;50.982;-3.222;2023-04-16T03:33:35;15;14;
70915;PMS5003;58557;50.982;-3.222;2023-04-16T03:36:01;21;21;
70915;PMS5003;58557;50.982;-3.222;2023-04-16T03:38:26;19;15;
70915;PMS5003;58557;50.982;-3.222;2023-04-16T03:40:51;28;24;
70915;PMS5003;58557;50.982;-3.222;2023-04-16T03:43:17;18;15;
70915;PMS5003;58557;50.982;-3.222;2023-04-16T03:45:43;19;15;
70915;PMS5003;58557;50.982;-3.222;2023-04-16T03:48:08;21;20;
70915;PMS5003;58557;50.982;-3.222;2023-04-16T03:50:33;19;18;
70915;PMS5003;58557;50.982;-3.222;2023-04-16T03:52:59;20;18;
70915;PMS5003;58557;50.982;-3.222;2023-04-16T03:55:25;24;21;
70915;PMS5003;58557;50.982;-3.222;2023-04-16T03:57:50;17;15;
70915;PMS5003;58557;50.982;-3.222;2023-04-16T04:00:15;20;19;
70915;PMS5003;58557;50.982;-3.222;2023-04-16T04:02:40;20;19;
70915;PMS5003;58557;50.982;-3.222;2023-04-16T04:05:06;18;16;
70915;PMS5003;58557;50.982;-3.222;2023-04-16T04:07:32;14;14;
70915;PMS5003;58557;50.982;-3.222;2023-04-16T04:09:57;14;12;
70915;PMS5003;58557;50.982;-3.222;2023-04-16T04:12:23;16;15;
70915;PMS5003;58557;50.982;-3.222;2023-04-16T04:14:48;18;16;
70915;PMS5003;58557;50.982;-3.222;2023-04-16T04:17:14;20;15;
70915;PMS5003;58557;50.982;-3.222;2023-04-16T04:19:40;21;21;
70915;PMS5003;58557;50.982;-3.222;2023-04-16T04:22:05;13;12;
70915;PMS5003;58557;50.982;-3.222;2023-04-16T04:24:31;14;14;
70915;PMS5003;58557;50.982;-3.222;2023-04-16T04:26:56;20;18;
70915;PMS5003;58557;50.982;-3.222;2023-04-16T04:29:22;20;19;
70915;PMS5003;58557;50.982;-3.222;2023-04-16T04:31:47;18;18;
70915;PMS5003;58557;50.982;-3.222;2023-04-16T04:34:13;17;16;
70915;PMS5003;58557;50.982;-3.222;2023-04-16T04:36:39;19;16;
70915;PMS5003;58557;50.982;-3.222;2023-04-16T04:39:04;14;14;
70915;PMS5003;58557;50.982;-3.222;2023-04-16T04:41:30;15;14;
70915;PMS5003;58557;50.982;-3.222;2023-04-16T04:43:55;20;16;
70915;PMS5003;58557;50.982;-3.222;2023-04-16T04:46:21;20;15;
70915;PMS5003;58557;50.982;-3.222;2023-04-16T04:48:46;19;16;
70915;PMS5003;58557;50.982;-3.222;2023-04-16T04:51:12;21;15;
70915;PMS5003;58557;50.982;-3.222;2023-04-16T04:53:37;15;15;
70915;PMS5003;58557;50.982;-3.222;2023-04-16T04:56:03;16;16;
70915;PMS5003;58557;50.982;-3.222;2023-04-16T04:58:29;23;21;
70915;PMS5003;58557;50.982;-3.222;2023-04-16T05:00:54;17;15;
70915;PMS5003;58557;50.982;-3.222;2023-04-16T05:03:20;17;16;
70915;PMS5003;58557;50.982;-3.222;2023-04-16T05:05:46;16;14;
70915;PMS5003;58557;50.982;-3.222;2023-04-16T05:08:11;23;21;
70915;PMS5003;58557;50.982;-3.222;2023-04-16T05:10:37;16;14;
70915;PMS5003;58557;50.982;-3.222;2023-04-16T05:13:02;20;20;
70915;PMS5003;58557;50.982;-3.222;2023-04-16T05:15:27;22;18;
70915;PMS5003;58557;50.982;-3.222;2023-04-16T05:17:53;19;17;
70915;PMS5003;58557;50.982;-3.222;2023-04-16T05:20:18;15;15;
70915;PMS5003;58557;50.982;-3.222;2023-04-16T05:22:43;15;13;
70915;PMS5003;58557;50.982;-3.222;2023-04-16T05:25:09;16;15;
70915;PMS5003;58557;50.982;-3.222;2023-04-16T05:27:35;25;24;
70915;PMS5003;58557;50.982;-3.222;2023-04-16T05:30:00;20;16;
70915;PMS5003;58557;50.982;-3.222;2023-04-16T05:32:25;17;15;
70915;PMS5003;58557;50.982;-3.222;2023-04-16T05:34:50;21;20;
70915;PMS5003;58557;50.982;-3.222;2023-04-16T05:37:16;20;16;
70915;PMS5003;58557;50.982;-3.222;2023-04-16T05:39:41;19;16;
70915;PMS5003;58557;50.982;-3.222;2023-04-16T05:42:07;15;14;
70915;PMS5003;58557;50.982;-3.222;2023-04-16T05:44:32;21;20;
70915;PMS5003;58557;50.982;-3.222;2023-04-16T05:46:58;21;16;
70915;PMS5003;58557;50.982;-3.222;2023-04-16T05:49:24;22;22;
70915;PMS5003;58557;50.982;-3.222;2023-04-16T05:51:49;27;24;
70915;PMS5003;58557;50.982;-3.222;2023-04-16T05:54:14;20;16;
70915;PMS5003;58557;50.982;-3.222;2023-04-16T05:56:40;19;15;
70915;PMS5003;58557;50.982;-3.222;2023-04-16T05:59:06;19;19;
70915;PMS5003;58557;50.982;-3.222;2023-04-16T06:01:31;26;22;
70915;PMS5003;58557;50.982;-3.222;2023-04-16T06:03:56;26;24;
70915;PMS5003;58557;50.982;-3.222;2023-04-16T06:06:21;19;18;
70915;PMS5003;58557;50.982;-3.222;2023-04-16T06:08:47;18;18;
70915;PMS5003;58557;50.982;-3.222;2023-04-16T06:11:12;19;17;
70915;PMS5003;58557;50.982;-3.222;2023-04-16T06:13:38;19;16;
70915;PMS5003;58557;50.982;-3.222;2023-04-16T06:16:04;14;14;
70915;PMS5003;58557;50.982;-3.222;2023-04-16T06:18:28;18;16;
70915;PMS5003;58557;50.982;-3.222;2023-04-16T06:20:54;14;13;
70915;PMS5003;58557;50.982;-3.222;2023-04-16T06:23:20;21;15;
70915;PMS5003;58557;50.982;-3.222;2023-04-16T06:25:45;21;15;
70915;PMS5003;58557;50.982;-3.222;2023-04-16T06:28:10;22;21;
70915;PMS5003;58557;50.982;-3.222;2023-04-16T06:30:36;25;24;
70915;PMS5003;58557;50.982;-3.222;2023-04-16T06:33:01;25;19;
70915;PMS5003;58557;50.982;-3.222;2023-04-16T06:35:27;21;17;
70915;PMS5003;58557;50.982;-3.222;2023-04-16T06:37:53;20;16;
70915;PMS5003;58557;50.982;-3.222;2023-04-16T06:40:18;16;16;
70915;PMS5003;58557;50.982;-3.222;2023-04-16T06:42:44;21;17;
70915;PMS5003;58557;50.982;-3.222;2023-04-16T06:45:10;17;16;
70915;PMS5003;58557;50.982;-3.222;2023-04-16T06:47:34;27;26;
70915;PMS5003;58557;50.982;-3.222;2023-04-16T06:50:00;21;21;
70915;PMS5003;58557;50.982;-3.222;2023-04-16T06:52:25;31;25;
70915;PMS5003;58557;50.982;-3.222;2023-04-16T06:54:51;28;28;
70915;PMS5003;58557;50.982;-3.222;2023-04-16T06:57:16;20;20;
70915;PMS5003;58557;50.982;-3.222;2023-04-16T06:59:42;23;23;
70915;PMS5003;58557;50.982;-3.222;2023-04-16T07:02:07;24;22;
70915;PMS5003;58557;50.982;-3.222;2023-04-16T07:04:33;21;21;
70915;PMS5003;58557;50.982;-3.222;2023-04-16T07:06:58;22;21;
70915;PMS5003;58557;50.982;-3.222;2023-04-16T07:09:23;24;23;
70915;PMS5003;58557;50.982;-3.222;2023-04-16T07:11:49;23;18;
70915;PMS5003;58557;50.982;-3.222;2023-04-16T07:14:14;21;19;
70915;PMS5003;58557;50.982;-3.222;2023-04-16T07:16:41;22;22;
70915;PMS5003;58557;50.982;-3.222;2023-04-16T07:19:05;26;23;
70915;PMS5003;58557;50.982;-3.222;2023-04-16T07:21:30;17;17;
70915;PMS5003;58557;50.982;-3.222;2023-04-16T07:23:56;23;23;
70915;PMS5003;58557;50.982;-3.222;2023-04-16T07:26:21;25;21;
70915;PMS5003;58557;50.982;-3.222;2023-04-16T07:28:46;20;20;
70915;PMS5003;58557;50.982;-3.222;2023-04-16T07:31:16;24;23;
70915;PMS5003;58557;50.982;-3.222;2023-04-16T07:33:38;22;19;
70915;PMS5003;58557;50.982;-3.222;2023-04-16T07:36:03;23;19;
70915;PMS5003;58557;50.982;-3.222;2023-04-16T07:38:28;19;17;
70915;PMS5003;58557;50.982;-3.222;2023-04-16T07:40:54;20;19;
70915;PMS5003;58557;50.982;-3.222;2023-04-16T07:43:19;18;18;
70915;PMS5003;58557;50.982;-3.222;2023-04-16T07:45:45;17;17;
70915;PMS5003;58557;50.982;-3.222;2023-04-16T07:48:11;17;17;
70915;PMS5003;58557;50.982;-3.222;2023-04-16T07:50:36;21;18;
70915;PMS5003;58557;50.982;-3.222;2023-04-16T07:53:02;21;21;
70915;PMS5003;58557;50.982;-3.222;2023-04-16T07:55:27;17;17;
70915;PMS5003;58557;50.982;-3.222;2023-04-16T07:57:53;26;24;
70915;PMS5003;58557;50.982;-3.222;2023-04-16T08:00:18;23;23;
70915;PMS5003;58557;50.982;-3.222;2023-04-16T08:02:43;16;16;
70915;PMS5003;58557;50.982;-3.222;2023-04-16T08:05:09;26;22;
70915;PMS5003;58557;50.982;-3.222;2023-04-16T08:07:34;24;21;
70915;PMS5003;58557;50.982;-3.222;2023-04-16T08:10:00;14;14;
70915;PMS5003;58557;50.982;-3.222;2023-04-16T08:12:26;17;16;
70915;PMS5003;58557;50.982;-3.222;2023-04-16T08:14:51;17;15;
70915;PMS5003;58557;50.982;-3.222;2023-04-16T08:17:17;14;13;
70915;PMS5003;58557;50.982;-3.222;2023-04-16T08:19:43;15;14;
70915;PMS5003;58557;50.982;-3.222;2023-04-16T08:22:08;19;16;
70915;PMS5003;58557;50.982;-3.222;2023-04-16T08:24:34;18;17;
70915;PMS5003;58557;50.982;-3.222;2023-04-16T08:26:59;17;14;
70915;PMS5003;58557;50.982;-3.222;2023-04-16T08:29:25;13;12;
70915;PMS5003;58557;50.982;-3.222;2023-04-16T08:31:51;15;15;
70915;PMS5003;58557;50.982;-3.222;2023-04-16T08:34:16;16;13;
70915;PMS5003;58557;50.982;-3.222;2023-04-16T08:36:42;19;15;
70915;PMS5003;58557;50.982;-3.222;2023-04-16T08:39:07;21;18;
70915;PMS5003;58557;50.982;-3.222;2023-04-16T08:41:33;13;13;
70915;PMS5003;58557;50.982;-3.222;2023-04-16T08:43:58;12;10;
70915;PMS5003;58557;50.982;-3.222;2023-04-16T08:46:24;8;8;
70915;PMS5003;58557;50.982;-3.222;2023-04-16T08:48:50;4;3;
70915;PMS5003;58557;50.982;-3.222;2023-04-16T08:51:15;3;3;
70915;PMS5003;58557;50.982;-3.222;2023-04-16T08:53:42;3;2;
70915;PMS5003;58557;50.982;-3.222;2023-04-16T08:56:07;1;1;
70915;PMS5003;58557;50.982;-3.222;2023-04-16T08:58:33;3;1;
70915;PMS5003;58557;50.982;-3.222;2023-04-16T09:00:59;5;3;
70915;PMS5003;58557;50.982;-3.222;2023-04-16T09:03:24;2;2;
70915;PMS5003;58557;50.982;-3.222;2023-04-16T09:05:50;6;3;
70915;PMS5003;58557;50.982;-3.222;2023-04-16T09:08:16;4;3;
70915;PMS5003;58557;50.982;-3.222;2023-04-16T09:10:41;2;2;
70915;PMS5003;58557;50.982;-3.222;2023-04-16T09:13:08;3;2;
70915;PMS5003;58557;50.982;-3.222;2023-04-16T09:15:33;2;2;
70915;PMS5003;58557;50.982;-3.222;2023-04-16T09:17:59;2;2;
70915;PMS5003;58557;50.982;-3.222;2023-04-16T09:20:24;4;2;
70915;PMS5003;58557;50.982;-3.222;2023-04-16T09:22:50;5;3;
70915;PMS5003;58557;50.982;-3.222;2023-04-16T09:25:16;2;2;
70915;PMS5003;58557;50.982;-3.222;2023-04-16T09:27:42;2;2;
70915;PMS5003;58557;50.982;-3.222;2023-04-16T09:32:33;1;1;
70915;PMS5003;58557;50.982;-3.222;2023-04-16T09:34:59;1;1;
70915;PMS5003;58557;50.982;-3.222;2023-04-16T09:37:25;1;1;
70915;PMS5003;58557;50.982;-3.222;2023-04-16T09:39:52;2;2;
70915;PMS5003;58557;50.982;-3.222;2023-04-16T09:42:19;3;2;
70915;PMS5003;58557;50.982;-3.222;2023-04-16T09:44:42;1;1;
70915;PMS5003;58557;50.982;-3.222;2023-04-16T09:47:08;4;2;
70915;PMS5003;58557;50.982;-3.222;2023-04-16T09:49:33;2;2;
70915;PMS5003;58557;50.982;-3.222;2023-04-16T09:51:59;3;2;
70915;PMS5003;58557;50.982;-3.222;2023-04-16T09:54:24;2;2;
70915;PMS5003;58557;50.982;-3.222;2023-04-16T09:56:50;4;2;
70915;PMS5003;58557;50.982;-3.222;2023-04-16T09:59:16;3;3;
70915;PMS5003;58557;50.982;-3.222;2023-04-16T10:01:41;1;1;
70915;PMS5003;58557;50.982;-3.222;2023-04-16T10:04:07;2;2;
70915;PMS5003;58557;50.982;-3.222;2023-04-16T10:06:33;4;2;
70915;PMS5003;58557;50.982;-3.222;2023-04-16T10:08:58;4;3;
70915;PMS5003;58557;50.982;-3.222;2023-04-16T10:11:24;2;2;
70915;PMS5003;58557;50.982;-3.222;2023-04-16T10:13:50;1;1;
70915;PMS5003;58557;50.982;-3.222;2023-04-16T10:16:16;2;2;
70915;PMS5003;58557;50.982;-3.222;2023-04-16T10:18:42;4;3;
70915;PMS5003;58557;50.982;-3.222;2023-04-16T10:21:07;1;1;
70915;PMS5003;58557;50.982;-3.222;2023-04-16T10:23:33;2;2;
70915;PMS5003;58557;50.982;-3.222;2023-04-16T10:25:59;4;2;
70915;PMS5003;58557;50.982;-3.222;2023-04-16T10:28:24;2;2;
70915;PMS5003;58557;50.982;-3.222;2023-04-16T10:30:50;3;2;
70915;PMS5003;58557;50.982;-3.222;2023-04-16T10:33:15;7;7;
70915;PMS5003;58557;50.982;-3.222;2023-04-16T10:35:40;2;2;
70915;PMS5003;58557;50.982;-3.222;2023-04-16T10:40:31;3;3;
70915;PMS5003;58557;50.982;-3.222;2023-04-16T10:42:57;2;2;
70915;PMS5003;58557;50.982;-3.222;2023-04-16T10:45:25;2;2;
70915;PMS5003;58557;50.982;-3.222;2023-04-16T10:47:49;2;2;
70915;PMS5003;58557;50.982;-3.222;2023-04-16T10:50:14;3;3;
70915;PMS5003;58557;50.982;-3.222;2023-04-16T10:52:40;3;3;
70915;PMS5003;58557;50.982;-3.222;2023-04-16T10:55:06;3;3;
70915;PMS5003;58557;50.982;-3.222;2023-04-16T10:57:32;2;2;
70915;PMS5003;58557;50.982;-3.222;2023-04-16T10:59:57;3;3;
70915;PMS5003;58557;50.982;-3.222;2023-04-16T11:02:27;4;3;
70915;PMS5003;58557;50.982;-3.222;2023-04-16T11:04:49;5;3;
70915;PMS5003;58557;50.982;-3.222;2023-04-16T11:07:16;3;3;
70915;PMS5003;58557;50.982;-3.222;2023-04-16T11:09:43;4;4;
70915;PMS5003;58557;50.982;-3.222;2023-04-16T11:12:06;4;3;
70915;PMS5003;58557;50.982;-3.222;2023-04-16T11:14:32;3;3;
70915;PMS5003;58557;50.982;-3.222;2023-04-16T11:16:58;4;3;
70915;PMS5003;58557;50.982;-3.222;2023-04-16T11:19:23;6;5;
70915;PMS5003;58557;50.982;-3.222;2023-04-16T11:21:49;3;3;
70915;PMS5003;58557;50.982;-3.222;2023-04-16T11:24:14;8;4;
70915;PMS5003;58557;50.982;-3.222;2023-04-16T11:26:40;7;7;
70915;PMS5003;58557;50.982;-3.222;2023-04-16T11:31:31;7;4;
70915;PMS5003;58557;50.982;-3.222;2023-04-16T11:33:58;6;4;
70915;PMS5003;58557;50.982;-3.222;2023-04-16T11:36:23;4;4;
70915;PMS5003;58557;50.982;-3.222;2023-04-16T11:38:48;9;6;
70915;PMS5003;58557;50.982;-3.222;2023-04-16T11:41:18;10;8;
70915;PMS5003;58557;50.982;-3.222;2023-04-16T11:43:39;5;5;
70915;PMS5003;58557;50.982;-3.222;2023-04-16T11:46:05;6;6;
70915;PMS5003;58557;50.982;-3.222;2023-04-16T11:50:56;11;8;
70915;PMS5003;58557;50.982;-3.222;2023-04-16T11:53:22;7;5;
70915;PMS5003;58557;50.982;-3.222;2023-04-16T11:55:47;8;8;
70915;PMS5003;58557;50.982;-3.222;2023-04-16T11:58:13;7;6;
70915;PMS5003;58557;50.982;-3.222;2023-04-16T12:00:39;13;7;
70915;PMS5003;58557;50.982;-3.222;2023-04-16T12:03:04;13;10;
70915;PMS5003;58557;50.982;-3.222;2023-04-16T12:05:30;7;6;
70915;PMS5003;58557;50.982;-3.222;2023-04-16T12:07:56;5;5;
70915;PMS5003;58557;50.982;-3.222;2023-04-16T12:10:21;10;9;
70915;PMS5003;58557;50.982;-3.222;2023-04-16T12:12:47;7;5;
70915;PMS5003;58557;50.982;-3.222;2023-04-16T12:15:12;6;6;
70915;PMS5003;58557;50.982;-3.222;2023-04-16T12:17:38;6;6;
70915;PMS5003;58557;50.982;-3.222;2023-04-16T12:20:07;10;7;
70915;PMS5003;58557;50.982;-3.222;2023-04-16T12:22:30;6;6;
70915;PMS5003;58557;50.982;-3.222;2023-04-16T12:24:57;5;5;
70915;PMS5003;58557;50.982;-3.222;2023-04-16T12:27:20;5;4;
70915;PMS5003;58557;50.982;-3.222;2023-04-16T12:30:01;7;4;
70915;PMS5003;58557;50.982;-3.222;2023-04-16T12:37:04;8;7;
70915;PMS5003;58557;50.982;-3.222;2023-04-16T12:39:29;4;3;
70915;PMS5003;58557;50.982;-3.222;2023-04-16T12:41:54;6;6;
70915;PMS5003;58557;50.982;-3.222;2023-04-16T12:44:20;6;4;
70915;PMS5003;58557;50.982;-3.222;2023-04-16T12:46:46;5;3;
70915;PMS5003;58557;50.982;-3.222;2023-04-16T12:49:11;4;3;
70915;PMS5003;58557;50.982;-3.222;2023-04-16T12:51:37;5;4;
70915;PMS5003;58557;50.982;-3.222;2023-04-16T12:54:04;4;4;
70915;PMS5003;58557;50.982;-3.222;2023-04-16T12:56:29;3;3;
70915;PMS5003;58557;50.982;-3.222;2023-04-16T12:58:54;6;6;
70915;PMS5003;58557;50.982;-3.222;2023-04-16T13:01:20;6;3;
70915;PMS5003;58557;50.982;-3.222;2023-04-16T13:03:46;5;5;
70915;PMS5003;58557;50.982;-3.222;2023-04-16T13:06:12;4;4;
70915;PMS5003;58557;50.982;-3.222;2023-04-16T13:08:37;6;5;
70915;PMS5003;58557;50.982;-3.222;2023-04-16T13:11:03;3;3;
70915;PMS5003;58557;50.982;-3.222;2023-04-16T13:13:29;5;5;
70915;PMS5003;58557;50.982;-3.222;2023-04-16T13:15:55;4;4;
70915;PMS5003;58557;50.982;-3.222;2023-04-16T13:18:20;7;4;
70915;PMS5003;58557;50.982;-3.222;2023-04-16T13:20:45;9;8;
70915;PMS5003;58557;50.982;-3.222;2023-04-16T13:23:11;4;3;
70915;PMS5003;58557;50.982;-3.222;2023-04-16T13:25:36;4;4;
70915;PMS5003;58557;50.982;-3.222;2023-04-16T13:28:02;6;5;
70915;PMS5003;58557;50.982;-3.222;2023-04-16T13:30:28;3;3;
70915;PMS5003;58557;50.982;-3.222;2023-04-16T13:32:54;4;3;
70915;PMS5003;58557;50.982;-3.222;2023-04-16T13:35:19;4;4;
70915;PMS5003;58557;50.982;-3.222;2023-04-16T13:37:45;4;3;
70915;PMS5003;58557;50.982;-3.222;2023-04-16T13:40:10;5;4;
70915;PMS5003;58557;50.982;-3.222;2023-04-16T13:42:36;4;4;
70915;PMS5003;58557;50.982;-3.222;2023-04-16T13:45:02;2;2;
70915;PMS5003;58557;50.982;-3.222;2023-04-16T13:47:27;6;3;
70915;PMS5003;58557;50.982;-3.222;2023-04-16T13:49:53;4;4;
70915;PMS5003;58557;50.982;-3.222;2023-04-16T13:52:18;5;4;
70915;PMS5003;58557;50.982;-3.222;2023-04-16T13:54:44;6;5;
70915;PMS5003;58557;50.982;-3.222;2023-04-16T13:57:09;3;3;
70915;PMS5003;58557;50.982;-3.222;2023-04-16T13:59:35;5;4;
70915;PMS5003;58557;50.982;-3.222;2023-04-16T14:02:01;4;4;
70915;PMS5003;58557;50.982;-3.222;2023-04-16T14:04:26;6;5;
70915;PMS5003;58557;50.982;-3.222;2023-04-16T14:06:52;8;4;
70915;PMS5003;58557;50.982;-3.222;2023-04-16T14:09:18;5;5;
70915;PMS5003;58557;50.982;-3.222;2023-04-16T14:11:44;4;4;
70915;PMS5003;58557;50.982;-3.222;2023-04-16T14:14:09;4;4;
70915;PMS5003;58557;50.982;-3.222;2023-04-16T14:16:35;4;4;
70915;PMS5003;58557;50.982;-3.222;2023-04-16T14:19:00;8;7;
70915;PMS5003;58557;50.982;-3.222;2023-04-16T14:21:26;3;2;
70915;PMS5003;58557;50.982;-3.222;2023-04-16T14:23:51;8;5;
70915;PMS5003;58557;50.982;-3.222;2023-04-16T14:26:17;5;5;
70915;PMS5003;58557;50.982;-3.222;2023-04-16T14:28:43;2;2;
70915;PMS5003;58557;50.982;-3.222;2023-04-16T14:31:08;4;3;
70915;PMS5003;58557;50.982;-3.222;2023-04-16T14:33:34;4;4;
70915;PMS5003;58557;50.982;-3.222;2023-04-16T14:36:00;4;4;
70915;PMS5003;58557;50.982;-3.222;2023-04-16T14:38:25;3;3;
70915;PMS5003;58557;50.982;-3.222;2023-04-16T14:40:51;4;4;
70915;PMS5003;58557;50.982;-3.222;2023-04-16T14:43:16;3;3;
70915;PMS5003;58557;50.982;-3.222;2023-04-16T14:45:42;10;9;
70915;PMS5003;58557;50.982;-3.222;2023-04-16T14:48:08;2;2;
70915;PMS5003;58557;50.982;-3.222;2023-04-16T14:50:33;3;3;
70915;PMS5003;58557;50.982;-3.222;2023-04-16T14:52:58;3;3;
70915;PMS5003;58557;50.982;-3.222;2023-04-16T14:55:24;4;3;
70915;PMS5003;58557;50.982;-3.222;2023-04-16T14:57:50;5;4;
70915;PMS5003;58557;50.982;-3.222;2023-04-16T15:00:16;4;4;
70915;PMS5003;58557;50.982;-3.222;2023-04-16T15:02:40;8;7;
70915;PMS5003;58557;50.982;-3.222;2023-04-16T15:05:07;5;4;
70915;PMS5003;58557;50.982;-3.222;2023-04-16T15:07:32;5;4;
70915;PMS5003;58557;50.982;-3.222;2023-04-16T15:09:58;6;3;
70915;PMS5003;58557;50.982;-3.222;2023-04-16T15:12:23;5;3;
70915;PMS5003;58557;50.982;-3.222;2023-04-16T15:14:48;7;4;
70915;PMS5003;58557;50.982;-3.222;2023-04-16T15:17:14;3;3;
70915;PMS5003;58557;50.982;-3.222;2023-04-16T15:19:39;7;6;
70915;PMS5003;58557;50.982;-3.222;2023-04-16T15:22:04;5;5;
70915;PMS5003;58557;50.982;-3.222;2023-04-16T15:24:30;4;4;
70915;PMS5003;58557;50.982;-3.222;2023-04-16T15:26:56;7;5;
70915;PMS5003;58557;50.982;-3.222;2023-04-16T15:29:21;7;4;
70915;PMS5003;58557;50.982;-3.222;2023-04-16T15:31:47;3;3;
70915;PMS5003;58557;50.982;-3.222;2023-04-16T15:34:12;5;3;
70915;PMS5003;58557;50.982;-3.222;2023-04-16T15:36:38;5;4;
70915;PMS5003;58557;50.982;-3.222;2023-04-16T15:39:04;6;6;
70915;PMS5003;58557;50.982;-3.222;2023-04-16T15:41:29;3;3;
70915;PMS5003;58557;50.982;-3.222;2023-04-16T15:43:54;5;4;
70915;PMS5003;58557;50.982;-3.222;2023-04-16T15:46:20;5;4;
70915;PMS5003;58557;50.982;-3.222;2023-04-16T15:48:46;8;5;
70915;PMS5003;58557;50.982;-3.222;2023-04-16T15:51:11;4;4;
70915;PMS5003;58557;50.982;-3.222;2023-04-16T15:53:37;6;4;
70915;PMS5003;58557;50.982;-3.222;2023-04-16T15:56:03;3;3;
70915;PMS5003;58557;50.982;-3.222;2023-04-16T15:58:28;2;2;
70915;PMS5003;58557;50.982;-3.222;2023-04-16T16:00:59;3;3;
70915;PMS5003;58557;50.982;-3.222;2023-04-16T16:03:20;3;1;
70915;PMS5003;58557;50.982;-3.222;2023-04-16T16:05:45;5;5;
70915;PMS5003;58557;50.982;-3.222;2023-04-16T16:08:11;3;3;
70915;PMS5003;58557;50.982;-3.222;2023-04-16T16:10:37;4;2;
70915;PMS5003;58557;50.982;-3.222;2023-04-16T16:13:02;7;7;
70915;PMS5003;58557;50.982;-3.222;2023-04-16T16:15:28;4;4;
70915;PMS5003;58557;50.982;-3.222;2023-04-16T16:17:53;2;2;
70915;PMS5003;58557;50.982;-3.222;2023-04-16T16:20:19;3;2;